Clermont, Florida
Current Conditions -  °F | °C
As of 2:53 PM on Thursday 27 Nov 2014 (Local Time) from KLEE Reporting Station
Clear Clear  
Wind Chill: 67°   Ceiling: Unl
Heat Index: 67°   Visibility: 10mi
Dew Point: 34°   Wind: 10mph
Humidity: 30%   Direction: 310°NW
Pressure: 30.19"   Gusts: NA
Location:  28.55°N, 81.77°W
Report Text: KLEE 271953Z 31009KT 10SM CLR 19/01 A3019 RMK AO2 SLP221 T01940011
Loading
Personal Weather Stations






























Interactive Weather Map New forecast layout! Learn more

10-Day Weather Forecast

Advertisements
Track Severe Weather on mobile